sensor_id;sensor_type;location;lat;lon;timestamp;temperature;humidity
33699;DHT22;20032;52.436;13.312;2024-03-23T00:53:40;8.70;99.90
33699;DHT22;20032;52.436;13.312;2024-03-23T00:56:05;8.70;99.90
33699;DHT22;20032;52.436;13.312;2024-03-23T00:58:31;8.80;99.90
33699;DHT22;20032;52.436;13.312;2024-03-23T01:00:56;8.80;99.90
33699;DHT22;20032;52.436;13.312;2024-03-23T01:03:22;8.80;99.90
33699;DHT22;20032;52.436;13.312;2024-03-23T01:05:47;8.80;99.90
33699;DHT22;20032;52.436;13.312;2024-03-23T01:08:14;8.80;99.90
33699;DHT22;20032;52.436;13.312;2024-03-23T01:10:39;8.80;99.90
33699;DHT22;20032;52.436;13.312;2024-03-23T01:13:05;8.80;99.90
33699;DHT22;20032;52.436;13.312;2024-03-23T01:15:30;8.80;99.90
33699;DHT22;20032;52.436;13.312;2024-03-23T01:17:56;8.80;99.90
33699;DHT22;20032;52.436;13.312;2024-03-23T01:20:21;8.70;99.90
33699;DHT22;20032;52.436;13.312;2024-03-23T01:22:47;8.70;99.90
33699;DHT22;20032;52.436;13.312;2024-03-23T01:25:12;8.70;99.90
33699;DHT22;20032;52.436;13.312;2024-03-23T01:27:38;8.60;99.90
33699;DHT22;20032;52.436;13.312;2024-03-23T01:30:03;8.60;99.90
33699;DHT22;20032;52.436;13.312;2024-03-23T01:32:29;8.50;99.90
33699;DHT22;20032;52.436;13.312;2024-03-23T01:34:54;8.50;99.90
33699;DHT22;20032;52.436;13.312;2024-03-23T01:37:20;8.40;99.90
33699;DHT22;20032;52.436;13.312;2024-03-23T01:39:45;8.40;99.90
33699;DHT22;20032;52.436;13.312;2024-03-23T01:42:11;8.40;99.90
33699;DHT22;20032;52.436;13.312;2024-03-23T01:44:36;8.50;99.90
33699;DHT22;20032;52.436;13.312;2024-03-23T01:47:03;8.60;99.90
33699;DHT22;20032;52.436;13.312;2024-03-23T01:49:28;8.60;99.90
33699;DHT22;20032;52.436;13.312;2024-03-23T01:51:54;8.70;99.90
33699;DHT22;20032;52.436;13.312;2024-03-23T01:54:20;8.80;99.90
33699;DHT22;20032;52.436;13.312;2024-03-23T01:56:46;8.80;99.90
33699;DHT22;20032;52.436;13.312;2024-03-23T01:59:13;8.80;99.90
33699;DHT22;20032;52.436;13.312;2024-03-23T02:01:38;8.80;99.90
33699;DHT22;20032;52.436;13.312;2024-03-23T02:04:04;8.80;99.90
33699;DHT22;20032;52.436;13.312;2024-03-23T02:06:30;8.80;99.90
33699;DHT22;20032;52.436;13.312;2024-03-23T02:08:56;8.80;99.90
33699;DHT22;20032;52.436;13.312;2024-03-23T02:11:21;8.80;99.90
33699;DHT22;20032;52.436;13.312;2024-03-23T02:13:47;8.70;99.90
33699;DHT22;20032;52.436;13.312;2024-03-23T02:16:12;8.70;99.90
33699;DHT22;20032;52.436;13.312;2024-03-23T02:18:39;8.70;99.90
33699;DHT22;20032;52.436;13.312;2024-03-23T02:21:05;8.60;99.90
33699;DHT22;20032;52.436;13.312;2024-03-23T02:23:30;8.60;99.90
33699;DHT22;20032;52.436;13.312;2024-03-23T02:25:56;8.60;99.90
33699;DHT22;20032;52.436;13.312;2024-03-23T02:28:22;8.60;99.90
33699;DHT22;20032;52.436;13.312;2024-03-23T02:30:49;8.70;99.90
33699;DHT22;20032;52.436;13.312;2024-03-23T02:33:15;8.60;99.90
33699;DHT22;20032;52.436;13.312;2024-03-23T02:35:41;8.70;99.90
33699;DHT22;20032;52.436;13.312;2024-03-23T02:38:06;8.60;99.90
33699;DHT22;20032;52.436;13.312;2024-03-23T02:40:32;8.70;99.90
33699;DHT22;20032;52.436;13.312;2024-03-23T02:42:57;8.70;99.90
33699;DHT22;20032;52.436;13.312;2024-03-23T02:45:24;8.70;99.90
33699;DHT22;20032;52.436;13.312;2024-03-23T02:47:49;8.80;99.90
33699;DHT22;20032;52.436;13.312;2024-03-23T02:50:18;8.90;99.90
33699;DHT22;20032;52.436;13.312;2024-03-23T02:52:44;8.90;99.90
33699;DHT22;20032;52.436;13.312;2024-03-23T02:55:10;8.80;99.90
33699;DHT22;20032;52.436;13.312;2024-03-23T02:57:35;8.80;99.90
33699;DHT22;20032;52.436;13.312;2024-03-23T03:00:01;8.70;99.90
33699;DHT22;20032;52.436;13.312;2024-03-23T03:02:26;8.60;99.90
33699;DHT22;20032;52.436;13.312;2024-03-23T03:04:51;8.50;99.90
33699;DHT22;20032;52.436;13.312;2024-03-23T03:07:17;8.50;99.90
33699;DHT22;20032;52.436;13.312;2024-03-23T03:09:42;8.50;99.90
33699;DHT22;20032;52.436;13.312;2024-03-23T03:12:08;8.60;99.90
33699;DHT22;20032;52.436;13.312;2024-03-23T03:14:34;8.60;99.90
33699;DHT22;20032;52.436;13.312;2024-03-23T03:17:00;8.60;99.90
33699;DHT22;20032;52.436;13.312;2024-03-23T03:19:25;8.60;99.90
33699;DHT22;20032;52.436;13.312;2024-03-23T03:21:51;8.60;99.90
33699;DHT22;20032;52.436;13.312;2024-03-23T03:24:16;8.50;99.90
33699;DHT22;20032;52.436;13.312;2024-03-23T03:26:42;8.50;99.90
33699;DHT22;20032;52.436;13.312;2024-03-23T03:29:08;8.50;99.90
33699;DHT22;20032;52.436;13.312;2024-03-23T03:31:33;8.40;99.90
33699;DHT22;20032;52.436;13.312;2024-03-23T03:33:58;8.40;99.90
33699;DHT22;20032;52.436;13.312;2024-03-23T03:36:24;8.40;99.90
33699;DHT22;20032;52.436;13.312;2024-03-23T03:38:50;8.40;99.90
33699;DHT22;20032;52.436;13.312;2024-03-23T03:41:16;8.30;99.90
33699;DHT22;20032;52.436;13.312;2024-03-23T03:43:41;8.40;99.90
33699;DHT22;20032;52.436;13.312;2024-03-23T03:46:07;8.40;99.90
33699;DHT22;20032;52.436;13.312;2024-03-23T03:48:34;8.40;99.90
33699;DHT22;20032;52.436;13.312;2024-03-23T03:50:59;8.40;99.90
33699;DHT22;20032;52.436;13.312;2024-03-23T03:53:25;8.50;99.90
33699;DHT22;20032;52.436;13.312;2024-03-23T03:55:51;8.30;99.90
33699;DHT22;20032;52.436;13.312;2024-03-23T03:58:17;8.30;99.90
33699;DHT22;20032;52.436;13.312;2024-03-23T04:00:42;8.20;99.90
33699;DHT22;20032;52.436;13.312;2024-03-23T04:03:08;8.30;99.90
33699;DHT22;20032;52.436;13.312;2024-03-23T04:05:33;8.20;99.90
33699;DHT22;20032;52.436;13.312;2024-03-23T04:07:59;8.20;99.90
33699;DHT22;20032;52.436;13.312;2024-03-23T04:10:24;8.10;99.90
33699;DHT22;20032;52.436;13.312;2024-03-23T04:12:50;8.10;99.90
33699;DHT22;20032;52.436;13.312;2024-03-23T04:15:16;8.10;99.90
33699;DHT22;20032;52.436;13.312;2024-03-23T04:17:41;8.00;99.90
33699;DHT22;20032;52.436;13.312;2024-03-23T04:20:08;8.00;99.90
33699;DHT22;20032;52.436;13.312;2024-03-23T04:22:36;7.90;99.90
33699;DHT22;20032;52.436;13.312;2024-03-23T04:25:03;8.00;99.90
33699;DHT22;20032;52.436;13.312;2024-03-23T04:27:32;8.00;99.90
33699;DHT22;20032;52.436;13.312;2024-03-23T04:29:58;8.10;99.90
33699;DHT22;20032;52.436;13.312;2024-03-23T04:32:26;8.00;99.90
33699;DHT22;20032;52.436;13.312;2024-03-23T04:34:51;7.90;99.90
33699;DHT22;20032;52.436;13.312;2024-03-23T04:37:17;7.90;99.90
33699;DHT22;20032;52.436;13.312;2024-03-23T04:39:43;7.80;99.90
33699;DHT22;20032;52.436;13.312;2024-03-23T04:42:08;7.70;99.90
33699;DHT22;20032;52.436;13.312;2024-03-23T04:44:34;7.70;99.90
33699;DHT22;20032;52.436;13.312;2024-03-23T04:47:00;7.80;99.90
33699;DHT22;20032;52.436;13.312;2024-03-23T04:49:26;7.70;99.90
33699;DHT22;20032;52.436;13.312;2024-03-23T04:51:51;7.70;99.90
33699;DHT22;20032;52.436;13.312;2024-03-23T04:54:17;7.60;99.90
33699;DHT22;20032;52.436;13.312;2024-03-23T04:56:43;7.60;99.90
33699;DHT22;20032;52.436;13.312;2024-03-23T04:59:09;7.60;99.90
33699;DHT22;20032;52.436;13.312;2024-03-23T05:01:34;7.60;99.90
33699;DHT22;20032;52.436;13.312;2024-03-23T05:04:00;7.60;99.90
33699;DHT22;20032;52.436;13.312;2024-03-23T05:06:27;7.60;99.90
33699;DHT22;20032;52.436;13.312;2024-03-23T05:08:52;7.60;99.90
33699;DHT22;20032;52.436;13.312;2024-03-23T05:11:17;7.60;99.90
33699;DHT22;20032;52.436;13.312;2024-03-23T05:13:44;7.60;99.90
33699;DHT22;20032;52.436;13.312;2024-03-23T05:16:09;7.60;99.90
33699;DHT22;20032;52.436;13.312;2024-03-23T05:18:35;7.60;99.90
33699;DHT22;20032;52.436;13.312;2024-03-23T05:21:01;7.60;99.90
33699;DHT22;20032;52.436;13.312;2024-03-23T05:23:28;7.70;99.90
33699;DHT22;20032;52.436;13.312;2024-03-23T05:25:54;7.70;99.90
33699;DHT22;20032;52.436;13.312;2024-03-23T05:28:20;7.60;99.90
33699;DHT22;20032;52.436;13.312;2024-03-23T05:30:54;7.60;99.90
33699;DHT22;20032;52.436;13.312;2024-03-23T05:33:20;7.60;99.90
33699;DHT22;20032;52.436;13.312;2024-03-23T05:35:46;7.50;99.90
33699;DHT22;20032;52.436;13.312;2024-03-23T05:38:13;7.30;99.90
33699;DHT22;20032;52.436;13.312;2024-03-23T05:40:38;7.30;99.90
33699;DHT22;20032;52.436;13.312;2024-03-23T05:43:06;7.30;99.90
33699;DHT22;20032;52.436;13.312;2024-03-23T05:45:31;7.20;99.90
33699;DHT22;20032;52.436;13.312;2024-03-23T05:47:57;7.20;99.90
33699;DHT22;20032;52.436;13.312;2024-03-23T05:50:23;7.20;99.90
33699;DHT22;20032;52.436;13.312;2024-03-23T05:52:49;7.20;99.90
33699;DHT22;20032;52.436;13.312;2024-03-23T05:55:15;7.30;99.90
33699;DHT22;20032;52.436;13.312;2024-03-23T05:57:41;7.30;99.90
33699;DHT22;20032;52.436;13.312;2024-03-23T06:02:35;7.40;99.90
33699;DHT22;20032;52.436;13.312;2024-03-23T06:05:00;7.40;99.90
33699;DHT22;20032;52.436;13.312;2024-03-23T06:07:27;7.40;99.90
33699;DHT22;20032;52.436;13.312;2024-03-23T06:09:53;7.30;99.90
33699;DHT22;20032;52.436;13.312;2024-03-23T06:12:18;7.30;99.90
33699;DHT22;20032;52.436;13.312;2024-03-23T06:14:44;7.30;99.90
33699;DHT22;20032;52.436;13.312;2024-03-23T06:17:09;7.40;99.90
33699;DHT22;20032;52.436;13.312;2024-03-23T06:19:35;7.40;99.90
33699;DHT22;20032;52.436;13.312;2024-03-23T06:22:00;7.40;99.90
33699;DHT22;20032;52.436;13.312;2024-03-23T06:24:26;7.40;99.90
33699;DHT22;20032;52.436;13.312;2024-03-23T06:26:51;7.40;99.90
33699;DHT22;20032;52.436;13.312;2024-03-23T06:29:17;7.50;99.90
33699;DHT22;20032;52.436;13.312;2024-03-23T06:31:42;7.50;99.90
33699;DHT22;20032;52.436;13.312;2024-03-23T06:34:08;7.50;99.90
33699;DHT22;20032;52.436;13.312;2024-03-23T06:36:33;7.50;99.90
33699;DHT22;20032;52.436;13.312;2024-03-23T06:38:58;7.50;99.90
33699;DHT22;20032;52.436;13.312;2024-03-23T06:41:25;7.50;99.90
33699;DHT22;20032;52.436;13.312;2024-03-23T06:43:50;7.50;99.90
33699;DHT22;20032;52.436;13.312;2024-03-23T06:46:16;7.50;99.90
33699;DHT22;20032;52.436;13.312;2024-03-23T06:48:41;7.50;99.90
33699;DHT22;20032;52.436;13.312;2024-03-23T06:51:07;7.50;99.90
33699;DHT22;20032;52.436;13.312;2024-03-23T06:53:32;7.70;99.90
33699;DHT22;20032;52.436;13.312;2024-03-23T06:55:58;7.70;99.90
33699;DHT22;20032;52.436;13.312;2024-03-23T06:58:24;7.70;99.90
33699;DHT22;20032;52.436;13.312;2024-03-23T07:00:50;7.70;99.90
33699;DHT22;20032;52.436;13.312;2024-03-23T07:03:17;7.60;99.90
33699;DHT22;20032;52.436;13.312;2024-03-23T07:05:43;7.60;99.90
33699;DHT22;20032;52.436;13.312;2024-03-23T07:08:08;7.60;99.90
33699;DHT22;20032;52.436;13.312;2024-03-23T07:10:34;7.60;99.90
33699;DHT22;20032;52.436;13.312;2024-03-23T07:13:00;7.60;99.90
33699;DHT22;20032;52.436;13.312;2024-03-23T07:15:26;7.70;99.90
33699;DHT22;20032;52.436;13.312;2024-03-23T07:17:51;7.70;99.90
33699;DHT22;20032;52.436;13.312;2024-03-23T07:20:17;7.70;99.90
33699;DHT22;20032;52.436;13.312;2024-03-23T07:22:44;7.70;99.90
33699;DHT22;20032;52.436;13.312;2024-03-23T07:25:10;7.70;99.90
33699;DHT22;20032;52.436;13.312;2024-03-23T07:27:35;7.60;99.90
33699;DHT22;20032;52.436;13.312;2024-03-23T07:30:01;7.60;99.90
33699;DHT22;20032;52.436;13.312;2024-03-23T07:32:27;7.70;99.90
33699;DHT22;20032;52.436;13.312;2024-03-23T07:34:52;7.70;99.90
33699;DHT22;20032;52.436;13.312;2024-03-23T07:37:18;7.80;99.90
33699;DHT22;20032;52.436;13.312;2024-03-23T07:39:43;7.80;99.90
33699;DHT22;20032;52.436;13.312;2024-03-23T07:42:09;7.90;99.90
33699;DHT22;20032;52.436;13.312;2024-03-23T07:44:34;7.90;99.90
33699;DHT22;20032;52.436;13.312;2024-03-23T07:47:01;8.00;99.90
33699;DHT22;20032;52.436;13.312;2024-03-23T07:49:26;8.00;99.90
33699;DHT22;20032;52.436;13.312;2024-03-23T07:51:52;8.00;99.90
33699;DHT22;20032;52.436;13.312;2024-03-23T07:54:18;7.90;99.90
33699;DHT22;20032;52.436;13.312;2024-03-23T07:56:43;7.70;99.90
33699;DHT22;20032;52.436;13.312;2024-03-23T07:59:09;7.80;99.90
33699;DHT22;20032;52.436;13.312;2024-03-23T08:01:35;7.80;99.90
33699;DHT22;20032;52.436;13.312;2024-03-23T08:04:00;7.70;99.90
33699;DHT22;20032;52.436;13.312;2024-03-23T08:06:26;7.70;99.90
33699;DHT22;20032;52.436;13.312;2024-03-23T08:08:55;7.70;99.90
33699;DHT22;20032;52.436;13.312;2024-03-23T08:11:29;7.60;99.90
33699;DHT22;20032;52.436;13.312;2024-03-23T08:13:55;7.80;99.90
33699;DHT22;20032;52.436;13.312;2024-03-23T08:16:21;7.70;99.90
33699;DHT22;20032;52.436;13.312;2024-03-23T08:18:47;7.70;99.90
33699;DHT22;20032;52.436;13.312;2024-03-23T08:21:13;7.60;99.90
33699;DHT22;20032;52.436;13.312;2024-03-23T08:23:38;7.60;99.90
33699;DHT22;20032;52.436;13.312;2024-03-23T08:26:11;7.50;99.90
33699;DHT22;20032;52.436;13.312;2024-03-23T08:28:37;7.60;99.90
33699;DHT22;20032;52.436;13.312;2024-03-23T08:31:11;7.70;99.90
33699;DHT22;20032;52.436;13.312;2024-03-23T08:33:37;7.60;99.90
33699;DHT22;20032;52.436;13.312;2024-03-23T08:36:06;7.40;99.90
33699;DHT22;20032;52.436;13.312;2024-03-23T08:38:31;7.40;99.90
33699;DHT22;20032;52.436;13.312;2024-03-23T08:40:58;7.40;99.90
33699;DHT22;20032;52.436;13.312;2024-03-23T08:43:24;7.30;99.90
33699;DHT22;20032;52.436;13.312;2024-03-23T08:45:50;7.30;99.90
33699;DHT22;20032;52.436;13.312;2024-03-23T08:48:15;7.30;99.90
33699;DHT22;20032;52.436;13.312;2024-03-23T08:50:41;7.30;99.90
33699;DHT22;20032;52.436;13.312;2024-03-23T08:53:06;7.30;99.90
33699;DHT22;20032;52.436;13.312;2024-03-23T08:55:32;7.20;99.90
33699;DHT22;20032;52.436;13.312;2024-03-23T08:57:57;7.10;99.90
33699;DHT22;20032;52.436;13.312;2024-03-23T09:00:23;7.00;99.90
33699;DHT22;20032;52.436;13.312;2024-03-23T09:02:49;6.90;99.90
33699;DHT22;20032;52.436;13.312;2024-03-23T09:05:15;6.90;99.90
33699;DHT22;20032;52.436;13.312;2024-03-23T09:07:40;7.00;99.90
33699;DHT22;20032;52.436;13.312;2024-03-23T09:10:07;6.90;99.90
33699;DHT22;20032;52.436;13.312;2024-03-23T09:12:33;6.90;99.90
33699;DHT22;20032;52.436;13.312;2024-03-23T09:14:58;7.00;99.90
33699;DHT22;20032;52.436;13.312;2024-03-23T09:17:24;6.90;99.90
33699;DHT22;20032;52.436;13.312;2024-03-23T09:19:49;6.80;99.90
33699;DHT22;20032;52.436;13.312;2024-03-23T09:22:14;6.80;99.90
33699;DHT22;20032;52.436;13.312;2024-03-23T09:24:40;6.70;99.90
33699;DHT22;20032;52.436;13.312;2024-03-23T09:27:06;6.70;99.90
33699;DHT22;20032;52.436;13.312;2024-03-23T09:29:31;6.70;99.90
33699;DHT22;20032;52.436;13.312;2024-03-23T09:31:57;6.70;99.90
33699;DHT22;20032;52.436;13.312;2024-03-23T09:34:22;6.70;99.90
33699;DHT22;20032;52.436;13.312;2024-03-23T09:36:52;6.60;99.90
33699;DHT22;20032;52.436;13.312;2024-03-23T09:39:18;6.60;99.90
33699;DHT22;20032;52.436;13.312;2024-03-23T09:41:44;6.70;99.90
33699;DHT22;20032;52.436;13.312;2024-03-23T09:44:10;6.80;99.90
33699;DHT22;20032;52.436;13.312;2024-03-23T09:46:36;6.70;99.90
33699;DHT22;20032;52.436;13.312;2024-03-23T09:49:02;6.50;99.90
33699;DHT22;20032;52.436;13.312;2024-03-23T09:51:30;6.50;99.90
33699;DHT22;20032;52.436;13.312;2024-03-23T09:53:56;6.50;99.90
33699;DHT22;20032;52.436;13.312;2024-03-23T09:56:22;6.50;99.90
33699;DHT22;20032;52.436;13.312;2024-03-23T09:58:49;6.50;99.90
33699;DHT22;20032;52.436;13.312;2024-03-23T10:01:14;6.50;99.90
33699;DHT22;20032;52.436;13.312;2024-03-23T10:03:44;6.40;99.90
33699;DHT22;20032;52.436;13.312;2024-03-23T10:06:10;6.40;99.90
33699;DHT22;20032;52.436;13.312;2024-03-23T10:08:35;6.40;99.90
33699;DHT22;20032;52.436;13.312;2024-03-23T10:11:17;6.30;99.90
33699;DHT22;20032;52.436;13.312;2024-03-23T10:13:43;6.20;99.90
33699;DHT22;20032;52.436;13.312;2024-03-23T10:16:10;6.30;99.90
33699;DHT22;20032;52.436;13.312;2024-03-23T10:18:39;6.30;99.90
33699;DHT22;20032;52.436;13.312;2024-03-23T10:21:08;6.40;99.90
33699;DHT22;20032;52.436;13.312;2024-03-23T10:23:37;6.40;99.90
33699;DHT22;20032;52.436;13.312;2024-03-23T10:26:21;6.20;99.90
33699;DHT22;20032;52.436;13.312;2024-03-23T10:31:18;6.10;99.90
33699;DHT22;20032;52.436;13.312;2024-03-23T10:33:45;6.20;99.90
33699;DHT22;20032;52.436;13.312;2024-03-23T10:36:12;6.20;99.90
33699;DHT22;20032;52.436;13.312;2024-03-23T10:38:41;6.20;99.90
33699;DHT22;20032;52.436;13.312;2024-03-23T10:41:08;6.10;99.90
33699;DHT22;20032;52.436;13.312;2024-03-23T10:43:35;6.10;99.90
33699;DHT22;20032;52.436;13.312;2024-03-23T10:46:01;6.10;99.90
33699;DHT22;20032;52.436;13.312;2024-03-23T10:48:26;6.20;99.90
33699;DHT22;20032;52.436;13.312;2024-03-23T10:50:53;6.30;99.90
33699;DHT22;20032;52.436;13.312;2024-03-23T10:53:20;6.30;99.90
33699;DHT22;20032;52.436;13.312;2024-03-23T10:55:48;6.30;99.90
33699;DHT22;20032;52.436;13.312;2024-03-23T10:58:14;6.30;99.90
33699;DHT22;20032;52.436;13.312;2024-03-23T11:00:41;6.30;99.90
33699;DHT22;20032;52.436;13.312;2024-03-23T11:03:58;6.30;99.90
33699;DHT22;20032;52.436;13.312;2024-03-23T11:06:34;6.20;99.90
33699;DHT22;20032;52.436;13.312;2024-03-23T11:09:00;6.20;99.90
33699;DHT22;20032;52.436;13.312;2024-03-23T11:11:25;6.30;99.90
33699;DHT22;20032;52.436;13.312;2024-03-23T11:13:53;6.30;99.90
33699;DHT22;20032;52.436;13.312;2024-03-23T11:16:24;6.30;99.90
33699;DHT22;20032;52.436;13.312;2024-03-23T11:18:51;6.40;99.90
33699;DHT22;20032;52.436;13.312;2024-03-23T11:21:51;6.50;99.90
33699;DHT22;20032;52.436;13.312;2024-03-23T11:24:16;6.60;99.90
33699;DHT22;20032;52.436;13.312;2024-03-23T11:26:42;6.60;99.90
33699;DHT22;20032;52.436;13.312;2024-03-23T11:29:09;6.80;99.90
33699;DHT22;20032;52.436;13.312;2024-03-23T11:31:37;6.80;99.90
33699;DHT22;20032;52.436;13.312;2024-03-23T11:34:05;6.90;99.90
33699;DHT22;20032;52.436;13.312;2024-03-23T11:36:31;6.90;99.90
33699;DHT22;20032;52.436;13.312;2024-03-23T11:38:56;6.80;99.90
33699;DHT22;20032;52.436;13.312;2024-03-23T11:41:22;6.70;99.90
33699;DHT22;20032;52.436;13.312;2024-03-23T11:43:47;6.70;99.90
33699;DHT22;20032;52.436;13.312;2024-03-23T11:46:22;6.90;99.90
33699;DHT22;20032;52.436;13.312;2024-03-23T11:48:50;6.90;99.90
33699;DHT22;20032;52.436;13.312;2024-03-23T11:51:17;7.00;99.90
33699;DHT22;20032;52.436;13.312;2024-03-23T11:53:43;7.00;99.90
33699;DHT22;20032;52.436;13.312;2024-03-23T11:56:08;7.00;99.90
33699;DHT22;20032;52.436;13.312;2024-03-23T11:58:34;7.00;99.90
33699;DHT22;20032;52.436;13.312;2024-03-23T12:01:02;7.00;99.90
33699;DHT22;20032;52.436;13.312;2024-03-23T12:03:28;7.10;99.90
33699;DHT22;20032;52.436;13.312;2024-03-23T12:05:58;7.10;99.90
33699;DHT22;20032;52.436;13.312;2024-03-23T12:08:32;6.90;99.90
33699;DHT22;20032;52.436;13.312;2024-03-23T12:11:15;6.80;99.90
33699;DHT22;20032;52.436;13.312;2024-03-23T12:13:43;6.80;99.90
33699;DHT22;20032;52.436;13.312;2024-03-23T12:18:39;6.90;99.90
33699;DHT22;20032;52.436;13.312;2024-03-23T12:21:05;6.80;99.90
33699;DHT22;20032;52.436;13.312;2024-03-23T12:23:31;6.90;99.90
33699;DHT22;20032;52.436;13.312;2024-03-23T12:25:57;6.90;99.90
33699;DHT22;20032;52.436;13.312;2024-03-23T12:28:23;7.00;99.90
33699;DHT22;20032;52.436;13.312;2024-03-23T12:30:48;7.00;99.90
33699;DHT22;20032;52.436;13.312;2024-03-23T12:33:14;7.20;99.90
33699;DHT22;20032;52.436;13.312;2024-03-23T12:35:39;7.30;99.90
33699;DHT22;20032;52.436;13.312;2024-03-23T12:38:05;7.10;99.90
33699;DHT22;20032;52.436;13.312;2024-03-23T12:40:30;7.00;99.90
33699;DHT22;20032;52.436;13.312;2024-03-23T12:42:56;6.90;99.90
33699;DHT22;20032;52.436;13.312;2024-03-23T12:45:21;6.80;99.90
33699;DHT22;20032;52.436;13.312;2024-03-23T12:47:47;6.80;99.90
33699;DHT22;20032;52.436;13.312;2024-03-23T12:50:12;7.00;99.90
33699;DHT22;20032;52.436;13.312;2024-03-23T12:52:38;7.00;99.90
33699;DHT22;20032;52.436;13.312;2024-03-23T12:55:04;7.10;99.90
33699;DHT22;20032;52.436;13.312;2024-03-23T12:57:31;7.20;99.90
33699;DHT22;20032;52.436;13.312;2024-03-23T12:59:57;7.30;99.90
33699;DHT22;20032;52.436;13.312;2024-03-23T13:02:23;7.40;99.90
33699;DHT22;20032;52.436;13.312;2024-03-23T13:04:50;7.50;99.90
33699;DHT22;20032;52.436;13.312;2024-03-23T13:07:19;7.50;99.90
33699;DHT22;20032;52.436;13.312;2024-03-23T13:09:45;7.60;99.90
33699;DHT22;20032;52.436;13.312;2024-03-23T13:12:11;7.60;99.90
33699;DHT22;20032;52.436;13.312;2024-03-23T13:14:38;7.70;99.90
33699;DHT22;20032;52.436;13.312;2024-03-23T13:17:03;8.00;99.90
33699;DHT22;20032;52.436;13.312;2024-03-23T13:19:29;8.80;99.90
33699;DHT22;20032;52.436;13.312;2024-03-23T13:21:57;9.90;99.90
33699;DHT22;20032;52.436;13.312;2024-03-23T13:24:23;11.00;99.90
33699;DHT22;20032;52.436;13.312;2024-03-23T13:26:50;11.80;99.90
33699;DHT22;20032;52.436;13.312;2024-03-23T13:29:15;12.50;99.90
33699;DHT22;20032;52.436;13.312;2024-03-23T13:31:41;13.20;99.90
33699;DHT22;20032;52.436;13.312;2024-03-23T13:34:07;13.60;99.90
33699;DHT22;20032;52.436;13.312;2024-03-23T13:36:32;14.30;99.90
33699;DHT22;20032;52.436;13.312;2024-03-23T13:38:58;14.80;99.90
33699;DHT22;20032;52.436;13.312;2024-03-23T13:41:24;14.00;99.90
33699;DHT22;20032;52.436;13.312;2024-03-23T13:43:49;13.70;99.90
33699;DHT22;20032;52.436;13.312;2024-03-23T13:46:15;13.70;99.90
33699;DHT22;20032;52.436;13.312;2024-03-23T13:48:40;14.00;99.90
33699;DHT22;20032;52.436;13.312;2024-03-23T13:51:07;13.70;99.90
33699;DHT22;20032;52.436;13.312;2024-03-23T13:53:33;14.30;99.90
33699;DHT22;20032;52.436;13.312;2024-03-23T13:55:58;14.40;99.90
33699;DHT22;20032;52.436;13.312;2024-03-23T13:58:24;14.50;99.90
33699;DHT22;20032;52.436;13.312;2024-03-23T14:00:51;14.00;99.90
33699;DHT22;20032;52.436;13.312;2024-03-23T14:03:16;13.50;99.90
33699;DHT22;20032;52.436;13.312;2024-03-23T14:05:44;13.80;99.90
33699;DHT22;20032;52.436;13.312;2024-03-23T14:08:10;13.50;99.90
33699;DHT22;20032;52.436;13.312;2024-03-23T14:10:36;14.30;99.90
33699;DHT22;20032;52.436;13.312;2024-03-23T14:13:05;14.90;99.90
33699;DHT22;20032;52.436;13.312;2024-03-23T14:15:30;14.40;99.90
33699;DHT22;20032;52.436;13.312;2024-03-23T14:17:56;12.90;99.90
33699;DHT22;20032;52.436;13.312;2024-03-23T14:20:22;12.00;99.90
33699;DHT22;20032;52.436;13.312;2024-03-23T14:22:48;11.40;99.90
33699;DHT22;20032;52.436;13.312;2024-03-23T14:25:14;11.00;99.90
33699;DHT22;20032;52.436;13.312;2024-03-23T14:27:40;10.90;99.90
33699;DHT22;20032;52.436;13.312;2024-03-23T14:30:06;10.90;99.90
33699;DHT22;20032;52.436;13.312;2024-03-23T14:32:32;10.80;99.90
33699;DHT22;20032;52.436;13.312;2024-03-23T14:35:01;10.50;99.90
33699;DHT22;20032;52.436;13.312;2024-03-23T14:37:26;10.40;99.90
33699;DHT22;20032;52.436;13.312;2024-03-23T14:39:52;10.20;99.90
33699;DHT22;20032;52.436;13.312;2024-03-23T14:42:18;10.00;99.90
33699;DHT22;20032;52.436;13.312;2024-03-23T14:44:43;10.10;99.90
33699;DHT22;20032;52.436;13.312;2024-03-23T14:47:09;10.10;99.90
33699;DHT22;20032;52.436;13.312;2024-03-23T14:49:34;9.70;99.90
33699;DHT22;20032;52.436;13.312;2024-03-23T14:51:59;8.60;99.90
33699;DHT22;20032;52.436;13.312;2024-03-23T14:54:25;8.00;99.90
33699;DHT22;20032;52.436;13.312;2024-03-23T14:56:50;7.90;99.90
33699;DHT22;20032;52.436;13.312;2024-03-23T14:59:17;8.00;99.90
33699;DHT22;20032;52.436;13.312;2024-03-23T15:04:08;8.20;99.90
33699;DHT22;20032;52.436;13.312;2024-03-23T15:06:33;8.20;99.90
33699;DHT22;20032;52.436;13.312;2024-03-23T15:08:59;8.50;99.90
33699;DHT22;20032;52.436;13.312;2024-03-23T15:11:24;10.00;99.90
33699;DHT22;20032;52.436;13.312;2024-03-23T15:13:50;11.00;99.90
33699;DHT22;20032;52.436;13.312;2024-03-23T15:16:17;11.90;99.90
33699;DHT22;20032;52.436;13.312;2024-03-23T15:18:45;11.50;99.90
33699;DHT22;20032;52.436;13.312;2024-03-23T15:21:11;11.00;99.90
33699;DHT22;20032;52.436;13.312;2024-03-23T15:23:37;10.20;99.90
33699;DHT22;20032;52.436;13.312;2024-03-23T15:26:03;9.70;99.90
33699;DHT22;20032;52.436;13.312;2024-03-23T15:28:31;9.40;99.90
33699;DHT22;20032;52.436;13.312;2024-03-23T15:31:07;9.10;99.90
33699;DHT22;20032;52.436;13.312;2024-03-23T15:33:34;9.20;99.90
33699;DHT22;20032;52.436;13.312;2024-03-23T15:36:00;9.30;99.90
33699;DHT22;20032;52.436;13.312;2024-03-23T15:38:26;9.30;99.90
33699;DHT22;20032;52.436;13.312;2024-03-23T15:40:53;9.10;99.90
33699;DHT22;20032;52.436;13.312;2024-03-23T15:43:18;9.00;99.90
33699;DHT22;20032;52.436;13.312;2024-03-23T15:45:44;9.00;99.90
33699;DHT22;20032;52.436;13.312;2024-03-23T15:48:10;8.80;99.90
33699;DHT22;20032;52.436;13.312;2024-03-23T15:50:35;8.70;99.90
33699;DHT22;20032;52.436;13.312;2024-03-23T15:53:01;8.60;99.90
33699;DHT22;20032;52.436;13.312;2024-03-23T15:55:28;8.80;99.90
33699;DHT22;20032;52.436;13.312;2024-03-23T15:57:53;9.00;99.90
33699;DHT22;20032;52.436;13.312;2024-03-23T16:00:19;8.90;99.90
33699;DHT22;20032;52.436;13.312;2024-03-23T16:02:44;9.00;99.90
33699;DHT22;20032;52.436;13.312;2024-03-23T16:05:11;9.00;99.90
33699;DHT22;20032;52.436;13.312;2024-03-23T16:07:37;9.00;99.90
33699;DHT22;20032;52.436;13.312;2024-03-23T16:10:05;9.00;99.90
33699;DHT22;20032;52.436;13.312;2024-03-23T16:12:34;8.80;99.90
33699;DHT22;20032;52.436;13.312;2024-03-23T16:14:59;8.80;99.90
33699;DHT22;20032;52.436;13.312;2024-03-23T16:17:25;8.60;99.90
33699;DHT22;20032;52.436;13.312;2024-03-23T16:19:50;8.50;99.90
33699;DHT22;20032;52.436;13.312;2024-03-23T16:22:16;8.40;99.90
33699;DHT22;20032;52.436;13.312;2024-03-23T16:24:41;8.40;99.90
33699;DHT22;20032;52.436;13.312;2024-03-23T16:27:07;8.30;99.90